Time;durP1;ratioP1;P1;durP2;ratioP2;P2;SDS_P1;SDS_P2;PMS_P1;PMS_P2;Temp;Humidity;BMP_temperature;BMP_pressure;BME280_temperature;BME280_humidity;BME280_pressure;Samples;Min_cycle;Max_cycle;Signal;HPM_P1;HPM_P2
2023/11/19 00:02:08;;;;;;;;;;;;;;;14.43;44.28;99546.50;5097590;28;1086;-44
2023/11/19 00:04:36;;;;;;;;;;;;;;;14.92;45.56;99556.56;5097770;28;1918;-48
2023/11/19 00:07:04;;;;;;;;;;;;;;;15.40;45.66;99554.28;5097505;28;1480;-46
2023/11/19 00:09:29;;;;;;;;;;;;;;;14.81;46.16;99555.66;5097365;28;891;-42
2023/11/19 00:11:55;;;;;;;;;;;;;;;14.55;45.38;99565.78;5098934;28;2374;-45
2023/11/19 00:14:21;;;;;;;;;;;;;;;14.62;44.68;99574.88;5097241;28;1081;-46
2023/11/19 00:16:46;;;;;;;;;;;;;;;14.48;44.32;99554.84;5097417;28;1022;-46
2023/11/19 00:19:12;;;;;;;;;;;;;;;14.82;44.99;99556.53;5097321;28;1197;-46
2023/11/19 00:21:37;;;;;;;;;;;;;;;15.26;45.82;99604.03;5097083;28;1086;-46
2023/11/19 00:24:04;;;;;;;;;;;;;;;14.75;46.33;99608.25;5097169;28;1914;-49
2023/11/19 00:26:29;;;;;;;;;;;;;;;16.25;45.70;99592.88;5097232;28;1170;-48
2023/11/19 00:28:57;;;;;;;;;;;;;;;15.39;46.33;99629.47;5097347;28;942;-46
2023/11/19 00:31:23;;;;;;;;;;;;;;;15.10;46.08;99635.44;5097325;28;1238;-46
2023/11/19 00:33:48;;;;;;;;;;;;;;;14.77;45.35;99638.94;5096733;28;859;-45
2023/11/19 00:36:14;;;;;;;;;;;;;;;14.66;44.88;99637.19;5096709;28;1146;-42
2023/11/19 00:38:39;;;;;;;;;;;;;;;15.63;46.59;99650.34;5096879;28;1058;-45
2023/11/19 00:41:05;;;;;;;;;;;;;;;15.24;46.17;99668.69;5096895;28;990;-47
2023/11/19 00:43:30;;;;;;;;;;;;;;;14.80;45.99;99690.81;5096610;28;2680;-49
2023/11/19 00:45:56;;;;;;;;;;;;;;;14.71;45.15;99659.81;5096389;28;999;-47
2023/11/19 00:48:21;;;;;;;;;;;;;;;15.60;46.25;99684.25;5096561;28;1117;-47
2023/11/19 00:50:47;;;;;;;;;;;;;;;14.97;46.20;99705.31;5096691;28;1046;-47
2023/11/19 00:53:12;;;;;;;;;;;;;;;14.79;45.46;99692.63;5096400;27;1129;-47
2023/11/19 00:55:38;;;;;;;;;;;;;;;14.66;44.74;99691.94;5129113;27;1090;-48
2023/11/19 00:58:03;;;;;;;;;;;;;;;14.47;44.21;99714.59;5094801;28;1113;-46
2023/11/19 01:00:32;;;;;;;;;;;;;;;15.82;46.19;99724.81;5096868;28;1097;-46
2023/11/19 01:02:57;;;;;;;;;;;;;;;15.18;46.37;99723.88;5096187;28;1981;-45
2023/11/19 01:05:23;;;;;;;;;;;;;;;14.74;45.87;99747.75;5096425;28;1093;-43
2023/11/19 01:07:49;;;;;;;;;;;;;;;14.64;44.88;99738.88;5096516;28;1074;-44
2023/11/19 01:10:15;;;;;;;;;;;;;;;14.50;44.48;99732.03;5093904;28;1178;-44
2023/11/19 01:12:41;;;;;;;;;;;;;;;14.64;44.76;99760.03;5076018;28;2558;-46
2023/11/19 01:15:07;;;;;;;;;;;;;;;15.47;46.12;99762.16;5076671;28;1127;-46
2023/11/19 01:17:33;;;;;;;;;;;;;;;14.90;45.85;99762.41;5088638;28;1134;-47
2023/11/19 01:19:59;;;;;;;;;;;;;;;14.52;45.19;99761.88;5108414;28;993;-46
2023/11/19 01:22:24;;;;;;;;;;;;;;;15.55;45.94;99766.81;5091071;28;849;-45
2023/11/19 01:24:52;;;;;;;;;;;;;;;14.86;46.28;99761.84;5077608;28;1900;-44
2023/11/19 01:27:17;;;;;;;;;;;;;;;14.56;45.44;99764.13;5088307;28;1158;-48
2023/11/19 01:29:43;;;;;;;;;;;;;;;15.12;46.23;99768.59;5089254;28;1106;-44
2023/11/19 01:32:08;;;;;;;;;;;;;;;15.00;46.30;99767.78;5099353;28;1177;-48
2023/11/19 01:34:34;;;;;;;;;;;;;;;15.24;46.63;99762.28;5098007;28;1219;-42
2023/11/19 01:36:59;;;;;;;;;;;;;;;16.18;45.50;99780.16;5083132;28;1039;-43
2023/11/19 01:39:25;;;;;;;;;;;;;;;15.31;46.03;99770.56;5110328;28;1113;-44
2023/11/19 01:41:50;;;;;;;;;;;;;;;14.93;45.91;99780.72;5076229;28;2372;-44
2023/11/19 01:44:16;;;;;;;;;;;;;;;14.73;45.11;99795.53;5058125;28;1938;-43
2023/11/19 01:46:42;;;;;;;;;;;;;;;15.32;46.42;99776.69;5063830;28;932;-43
2023/11/19 01:49:08;;;;;;;;;;;;;;;15.23;46.53;99784.44;5089366;28;1130;-44
2023/11/19 01:51:34;;;;;;;;;;;;;;;14.81;45.94;99786.00;5083761;28;1074;-44
2023/11/19 01:54:00;;;;;;;;;;;;;;;14.74;44.86;99778.66;5076348;28;1022;-43
2023/11/19 01:56:25;;;;;;;;;;;;;;;14.65;44.71;99782.88;5098890;28;1046;-44
2023/11/19 01:58:51;;;;;;;;;;;;;;;14.52;43.88;99775.94;5062814;28;1066;-41
2023/11/19 02:01:16;;;;;;;;;;;;;;;14.98;45.65;99807.63;5063094;28;1196;-46
2023/11/19 02:03:43;;;;;;;;;;;;;;;15.35;45.85;99816.19;5071099;28;1898;-47
2023/11/19 02:06:10;;;;;;;;;;;;;;;14.74;46.01;99807.78;5043150;28;1185;-41
2023/11/19 02:08:35;;;;;;;;;;;;;;;14.58;45.04;99822.25;5089357;28;1171;-43
2023/11/19 02:11:01;;;;;;;;;;;;;;;15.64;46.30;99827.03;5076384;28;1316;-41
2023/11/19 02:13:28;;;;;;;;;;;;;;;15.25;46.35;99830.19;5094533;28;1102;-43
2023/11/19 02:15:54;;;;;;;;;;;;;;;14.87;45.95;99802.38;5096002;28;1233;-40
2023/11/19 02:18:21;;;;;;;;;;;;;;;14.65;45.04;99794.34;5129266;27;1261;-45
2023/11/19 02:20:47;;;;;;;;;;;;;;;15.35;46.66;99821.50;5095623;28;1333;-44
2023/11/19 02:23:13;;;;;;;;;;;;;;;15.23;46.03;99816.22;5098288;28;1906;-43
2023/11/19 02:25:39;;;;;;;;;;;;;;;14.81;45.75;99827.56;5098469;28;2295;-44
2023/11/19 02:28:05;;;;;;;;;;;;;;;14.66;44.99;99819.00;5098348;28;1078;-41
2023/11/19 02:30:31;;;;;;;;;;;;;;;15.35;46.63;99858.59;5132625;27;1233;-47
2023/11/19 02:32:58;;;;;;;;;;;;;;;15.46;46.25;99844.44;5099498;28;1237;-45
2023/11/19 02:35:27;;;;;;;;;;;;;;;14.92;46.21;99861.09;5090130;28;883;-41
2023/11/19 02:37:52;;;;;;;;;;;;;;;14.74;45.24;99853.66;5095683;28;1222;-42
2023/11/19 02:40:18;;;;;;;;;;;;;;;14.63;44.98;99856.31;5098445;28;1224;-41
2023/11/19 02:42:43;;;;;;;;;;;;;;;16.05;46.04;99862.63;5098231;28;1288;-43
2023/11/19 02:45:13;;;;;;;;;;;;;;;15.31;46.41;99847.41;5099546;28;1074;-44
2023/11/19 02:47:42;;;;;;;;;;;;;;;14.90;45.88;99841.84;5099220;28;912;-42
2023/11/19 02:50:24;;;;;;;;;;;;;;;14.69;45.29;99867.25;5099524;28;1154;-42
2023/11/19 02:52:50;;;;;;;;;;;;;;;14.51;44.79;99868.69;5131756;27;1117;-42
2023/11/19 02:55:17;;;;;;;;;;;;;;;14.92;45.89;99877.84;5099186;28;1176;-41
2023/11/19 02:57:47;;;;;;;;;;;;;;;15.12;46.13;99890.44;5097501;28;1151;-43
2023/11/19 03:00:17;;;;;;;;;;;;;;;14.63;45.86;99880.13;5098162;28;1522;-45
2023/11/19 03:02:58;;;;;;;;;;;;;;;15.17;46.40;99896.22;5097827;28;1090;-45
2023/11/19 03:05:24;;;;;;;;;;;;;;;15.15;45.87;99906.94;5099120;28;1055;-47
2023/11/19 03:07:49;;;;;;;;;;;;;;;14.75;45.71;99910.91;5099095;28;1030;-42
2023/11/19 03:10:15;;;;;;;;;;;;;;;14.57;45.41;99923.78;5097365;28;1226;-43
2023/11/19 03:12:41;;;;;;;;;;;;;;;14.48;44.98;99921.88;5069024;28;1349;-44
2023/11/19 03:15:07;;;;;;;;;;;;;;;15.47;46.19;99929.13;5080326;28;1073;-45
2023/11/19 03:17:33;;;;;;;;;;;;;;;14.74;46.43;99906.59;5081001;28;1176;-44
2023/11/19 03:20:01;;;;;;;;;;;;;;;15.17;46.57;99938.59;5098260;28;1075;-46
2023/11/19 03:22:26;;;;;;;;;;;;;;;15.44;46.48;99937.34;5110962;28;1315;-45
2023/11/19 03:24:52;;;;;;;;;;;;;;;14.96;46.01;99933.22;5085275;28;1984;-42
2023/11/19 03:27:17;;;;;;;;;;;;;;;14.77;45.12;99961.09;5098555;28;1152;-44
2023/11/19 03:29:43;;;;;;;;;;;;;;;14.61;44.61;99942.94;5098669;28;1121;-45
2023/11/19 03:32:08;;;;;;;;;;;;;;;15.16;46.02;99944.88;5079451;28;1066;-43
2023/11/19 03:34:34;;;;;;;;;;;;;;;15.65;46.08;99937.41;5094523;28;1086;-48
2023/11/19 03:36:59;;;;;;;;;;;;;;;14.98;46.58;99940.06;5090037;28;1138;-42
2023/11/19 03:39:26;;;;;;;;;;;;;;;14.84;45.54;99945.63;5093766;28;1126;-44
2023/11/19 03:41:52;;;;;;;;;;;;;;;14.56;45.15;99956.53;5098592;28;1141;-44
2023/11/19 03:44:19;;;;;;;;;;;;;;;14.53;44.48;99954.94;5084120;28;1914;-46
2023/11/19 03:46:44;;;;;;;;;;;;;;;15.26;46.19;99948.47;5094880;28;1077;-44
2023/11/19 03:49:10;;;;;;;;;;;;;;;15.38;46.30;99946.63;5073447;28;1209;-45
2023/11/19 03:51:35;;;;;;;;;;;;;;;14.87;46.52;99946.22;5077222;28;1336;-46
2023/11/19 03:54:01;;;;;;;;;;;;;;;14.51;45.89;99941.00;5079084;28;1142;-44
2023/11/19 03:56:27;;;;;;;;;;;;;;;14.50;45.05;99918.13;5080072;28;1137;-43
2023/11/19 03:58:52;;;;;;;;;;;;;;;14.43;44.33;99951.34;5090955;28;1050;-44
2023/11/19 04:01:18;;;;;;;;;;;;;;;14.71;45.62;99929.81;5075003;28;1367;-44
2023/11/19 04:03:44;;;;;;;;;;;;;;;15.61;46.29;99946.59;5093969;28;1906;-44
2023/11/19 04:06:09;;;;;;;;;;;;;;;14.86;46.28;99944.53;5088201;28;1186;-47
2023/11/19 04:08:35;;;;;;;;;;;;;;;15.21;47.22;99950.66;5073071;28;1103;-46
2023/11/19 04:11:04;;;;;;;;;;;;;;;15.24;46.69;99928.34;5080067;28;1112;-47
2023/11/19 04:13:30;;;;;;;;;;;;;;;14.80;46.19;99945.00;5075946;28;1118;-48
2023/11/19 04:15:55;;;;;;;;;;;;;;;14.64;45.26;99937.41;5088188;28;1026;-48
2023/11/19 04:18:21;;;;;;;;;;;;;;;14.61;45.24;99964.09;5071123;28;2358;-46
2023/11/19 04:20:46;;;;;;;;;;;;;;;15.36;46.41;99953.88;5097513;28;1034;-47
2023/11/19 04:23:12;;;;;;;;;;;;;;;14.80;46.69;99984.72;5087698;28;1906;-47
2023/11/19 04:25:38;;;;;;;;;;;;;;;14.61;45.58;99954.38;5097432;28;1081;-45
2023/11/19 04:28:04;;;;;;;;;;;;;;;14.43;45.99;99975.97;5085184;28;1074;-43
2023/11/19 04:30:31;;;;;;;;;;;;;;;15.98;46.23;99942.69;5086152;28;1047;-44
2023/11/19 04:32:57;;;;;;;;;;;;;;;15.29;46.58;99964.13;5093620;28;1018;-43
2023/11/19 04:35:22;;;;;;;;;;;;;;;15.45;47.74;99946.16;5078015;28;1087;-43
2023/11/19 04:37:48;;;;;;;;;;;;;;;16.08;46.51;99971.97;5093256;28;1117;-46
2023/11/19 04:40:13;;;;;;;;;;;;;;;15.30;46.78;99996.75;5086930;28;999;-45
2023/11/19 04:42:41;;;;;;;;;;;;;;;14.86;46.09;99986.06;5078404;28;1057;-43
2023/11/19 04:45:07;;;;;;;;;;;;;;;14.74;45.41;99979.88;5084070;28;1894;-44
2023/11/19 04:47:33;;;;;;;;;;;;;;;14.98;46.25;99978.97;5087695;28;2309;-42
2023/11/19 04:49:58;;;;;;;;;;;;;;;15.98;46.62;99974.53;5096322;28;1038;-46
2023/11/19 04:52:24;;;;;;;;;;;;;;;15.02;46.92;99989.19;5095796;28;1096;-50
2023/11/19 04:54:49;;;;;;;;;;;;;;;14.85;45.96;99994.97;5076324;28;1027;-46
2023/11/19 04:57:15;;;;;;;;;;;;;;;14.67;45.50;100005.97;5077048;28;1046;-42
2023/11/19 04:59:43;;;;;;;;;;;;;;;15.73;46.24;99981.84;5067402;28;1158;-41
2023/11/19 05:02:09;;;;;;;;;;;;;;;15.05;46.32;99985.44;5082143;28;1292;-44
2023/11/19 05:04:34;;;;;;;;;;;;;;;14.79;45.53;99997.09;5096067;28;1898;-43
2023/11/19 05:07:00;;;;;;;;;;;;;;;14.59;45.23;99997.78;5082487;28;1138;-44
2023/11/19 05:09:26;;;;;;;;;;;;;;;14.92;45.71;100004.13;5078592;28;1042;-45
2023/11/19 05:11:51;;;;;;;;;;;;;;;15.43;46.40;99997.47;5085865;28;1035;-45
2023/11/19 05:14:18;;;;;;;;;;;;;;;14.85;46.37;99997.63;5095139;28;908;-44
2023/11/19 05:16:44;;;;;;;;;;;;;;;15.45;47.11;100020.38;5096416;28;1061;-45
2023/11/19 05:19:09;;;;;;;;;;;;;;;15.20;46.20;100009.88;5082701;28;2489;-44
2023/11/19 05:21:35;;;;;;;;;;;;;;;14.83;46.23;100010.13;5082801;28;1102;-48
2023/11/19 05:24:04;;;;;;;;;;;;;;;14.67;45.00;100025.38;5076798;28;1985;-46
2023/11/19 05:26:29;;;;;;;;;;;;;;;14.55;44.71;100016.56;5082271;28;1237;-47
2023/11/19 05:28:55;;;;;;;;;;;;;;;15.52;46.18;100035.66;5089052;28;1119;-48
2023/11/19 05:31:20;;;;;;;;;;;;;;;15.19;46.82;100032.06;5089048;28;1047;-48
2023/11/19 05:33:46;;;;;;;;;;;;;;;15.90;45.29;100046.75;5075709;28;1087;-48
2023/11/19 05:36:12;;;;;;;;;;;;;;;16.92;42.64;100043.75;5077988;28;1062;-42
2023/11/19 05:38:38;;;;;;;;;;;;;;;16.99;42.11;100047.56;5082769;28;1221;-47
2023/11/19 05:41:04;;;;;;;;;;;;;;;16.34;43.69;100064.50;5081796;28;1157;-48
2023/11/19 05:43:30;;;;;;;;;;;;;;;17.27;41.92;100056.81;5083597;28;1902;-51
2023/11/19 05:45:55;;;;;;;;;;;;;;;17.11;41.75;100077.59;5082432;28;1086;-49
2023/11/19 05:48:21;;;;;;;;;;;;;;;16.48;43.37;100089.06;5091429;28;2387;-47
2023/11/19 05:50:49;;;;;;;;;;;;;;;17.36;41.63;100082.59;5095228;28;1125;-51
2023/11/19 05:53:15;;;;;;;;;;;;;;;16.92;42.14;100098.69;5095933;28;1031;-44
2023/11/19 05:55:48;;;;;;;;;;;;;;;16.45;43.51;100090.13;5095023;28;978;-50
2023/11/19 05:58:14;;;;;;;;;;;;;;;16.36;43.63;100104.19;5088626;28;1205;-49
2023/11/19 06:00:40;;;;;;;;;;;;;;;17.30;41.49;100083.97;5087875;28;1112;-50
2023/11/19 06:03:05;;;;;;;;;;;;;;;16.65;42.72;100100.91;5099792;28;1913;-48
2023/11/19 06:05:31;;;;;;;;;;;;;;;16.57;43.20;100124.59;5086009;28;967;-47
2023/11/19 06:07:57;;;;;;;;;;;;;;;17.53;41.01;100112.19;5099365;28;1105;-43
2023/11/19 06:10:28;;;;;;;;;;;;;;;16.83;42.40;100122.41;5086786;28;1146;-48
2023/11/19 06:12:56;;;;;;;;;;;;;;;16.33;43.81;100118.53;5099303;28;912;-41
2023/11/19 06:15:22;;;;;;;;;;;;;;;16.05;44.08;100118.13;5099648;28;1047;-43
2023/11/19 06:17:47;;;;;;;;;;;;;;;17.10;41.98;100107.78;5099343;28;1903;-49
2023/11/19 06:20:14;;;;;;;;;;;;;;;16.89;42.24;100103.31;5099974;28;1121;-47
2023/11/19 06:22:41;;;;;;;;;;;;;;;16.37;43.36;100092.59;5099908;28;1156;-46
2023/11/19 06:25:07;;;;;;;;;;;;;;;16.13;44.04;100106.91;5099121;28;1913;-49
2023/11/19 06:27:33;;;;;;;;;;;;;;;17.21;41.90;100087.44;5099107;28;1073;-48
2023/11/19 06:29:58;;;;;;;;;;;;;;;16.86;42.59;100100.06;5099620;28;1070;-48
2023/11/19 06:32:24;;;;;;;;;;;;;;;16.35;43.27;100092.72;5098019;28;1066;-46
2023/11/19 06:34:49;;;;;;;;;;;;;;;16.82;42.62;100117.22;5100178;28;1019;-45
2023/11/19 06:37:15;;;;;;;;;;;;;;;17.48;40.99;100104.63;5099341;28;923;-50
2023/11/19 06:39:40;;;;;;;;;;;;;;;16.75;42.56;100117.75;5099165;28;1186;-49
2023/11/19 06:42:07;;;;;;;;;;;;;;;16.39;43.39;100114.53;5099223;28;1146;-47
2023/11/19 06:44:32;;;;;;;;;;;;;;;16.52;43.47;100124.97;5099150;28;1979;-47
2023/11/19 06:46:58;;;;;;;;;;;;;;;17.58;41.17;100104.66;5099080;28;1011;-47
2023/11/19 06:49:24;;;;;;;;;;;;;;;16.87;42.36;100137.13;5098649;28;2529;-49
2023/11/19 06:51:50;;;;;;;;;;;;;;;16.40;43.49;100133.00;5098714;28;1006;-46
2023/11/19 06:54:16;;;;;;;;;;;;;;;16.32;43.77;100119.50;5099014;28;1030;-48
2023/11/19 06:56:41;;;;;;;;;;;;;;;17.45;41.37;100134.13;5098675;28;1138;-48
2023/11/19 06:59:07;;;;;;;;;;;;;;;16.84;42.42;100136.53;5098505;28;1094;-49
2023/11/19 07:01:36;;;;;;;;;;;;;;;16.58;43.00;100143.06;5098719;28;867;-43
2023/11/19 07:04:07;;;;;;;;;;;;;;;17.49;41.04;100155.00;5098632;28;1959;-47
2023/11/19 07:06:33;;;;;;;;;;;;;;;16.83;42.42;100159.59;5098906;28;1027;-49
2023/11/19 07:08:59;;;;;;;;;;;;;;;16.46;42.94;100152.06;5098556;28;1027;-47
2023/11/19 07:11:24;;;;;;;;;;;;;;;16.49;43.35;100171.22;5098730;28;1026;-49
2023/11/19 07:13:50;;;;;;;;;;;;;;;17.34;41.29;100182.91;5098274;28;953;-45
2023/11/19 07:16:15;;;;;;;;;;;;;;;16.69;42.61;100197.94;5098548;28;1093;-44
2023/11/19 07:18:43;;;;;;;;;;;;;;;16.74;42.59;100198.41;5098701;28;1858;-47
2023/11/19 07:21:10;;;;;;;;;;;;;;;17.04;41.84;100193.31;5098826;28;1158;-46
2023/11/19 07:23:35;;;;;;;;;;;;;;;16.56;42.91;100210.53;5098546;28;1905;-45
2023/11/19 07:26:01;;;;;;;;;;;;;;;16.58;42.96;100228.03;5098845;28;895;-48
2023/11/19 07:28:28;;;;;;;;;;;;;;;17.66;40.65;100221.00;5098286;28;1089;-47
2023/11/19 07:30:56;;;;;;;;;;;;;;;17.01;41.77;100231.63;5098603;28;1113;-48
2023/11/19 07:33:21;;;;;;;;;;;;;;;16.49;42.86;100220.81;5098491;28;1214;-48
2023/11/19 07:35:47;;;;;;;;;;;;;;;16.21;43.79;100223.06;5098772;28;1202;-49
2023/11/19 07:38:13;;;;;;;;;;;;;;;17.07;42.12;100208.16;5098109;28;1117;-46
2023/11/19 07:40:38;;;;;;;;;;;;;;;17.40;40.90;100216.13;5098958;28;1018;-46
2023/11/19 07:43:04;;;;;;;;;;;;;;;16.72;42.49;100218.94;5098525;28;1918;-47
2023/11/19 07:45:29;;;;;;;;;;;;;;;16.48;42.97;100217.31;5098076;28;1041;-52
2023/11/19 07:47:55;;;;;;;;;;;;;;;17.58;40.83;100221.69;5097565;28;2391;-46
2023/11/19 07:50:20;;;;;;;;;;;;;;;17.02;41.85;100221.84;5098007;28;1035;-47
2023/11/19 07:52:46;;;;;;;;;;;;;;;16.50;42.87;100202.09;5098228;28;1231;-53
2023/11/19 07:55:11;;;;;;;;;;;;;;;16.65;42.58;100215.09;5098385;28;1030;-53
2023/11/19 07:57:37;;;;;;;;;;;;;;;17.41;40.92;100201.84;5097940;28;1082;-51
2023/11/19 08:00:03;;;;;;;;;;;;;;;16.71;42.11;100195.16;5097791;28;1054;-51
2023/11/19 08:02:38;;;;;;;;;;;;;;;16.32;43.04;100198.28;5097802;28;1099;-49
2023/11/19 08:05:04;;;;;;;;;;;;;;;16.99;41.99;100214.97;5097414;28;1903;-46
2023/11/19 08:07:29;;;;;;;;;;;;;;;16.96;41.85;100217.03;5098188;28;1158;-56
2023/11/19 08:09:55;;;;;;;;;;;;;;;16.48;42.79;100214.66;5097749;28;1121;-56
2023/11/19 08:12:20;;;;;;;;;;;;;;;16.28;43.19;100225.09;5097305;28;1232;-51
2023/11/19 08:14:46;;;;;;;;;;;;;;;17.35;41.17;100235.13;5097542;28;1115;-50
2023/11/19 08:17:11;;;;;;;;;;;;;;;16.85;42.10;100248.00;5097887;28;1054;-45
2023/11/19 08:19:37;;;;;;;;;;;;;;;16.41;42.84;100229.41;5096911;28;2545;-49
2023/11/19 08:22:02;;;;;;;;;;;;;;;16.44;43.04;100221.19;5097609;28;986;-46
2023/11/19 08:24:28;;;;;;;;;;;;;;;17.42;40.96;100228.28;5094109;28;1902;-43
2023/11/19 08:26:53;;;;;;;;;;;;;;;16.72;42.27;100220.75;5107370;28;1030;-50
2023/11/19 08:29:19;;;;;;;;;;;;;;;16.57;42.53;100231.66;5094999;28;1360;-47
2023/11/19 08:31:45;;;;;;;;;;;;;;;17.42;40.86;100230.94;5097239;28;1089;-46
2023/11/19 08:34:11;;;;;;;;;;;;;;;16.07;41.88;100099.44;5095268;28;1429;-47
2023/11/19 08:36:36;;;;;;;;;;;;;;;16.36;43.15;100226.28;5095886;28;1689;-49
2023/11/19 08:39:02;;;;;;;;;;;;;;;17.19;41.50;100211.63;5097175;28;979;-46
2023/11/19 08:41:28;;;;;;;;;;;;;;;16.97;41.86;100243.47;5096917;28;1148;-49
2023/11/19 08:43:53;;;;;;;;;;;;;;;16.52;42.81;100232.03;5096957;28;1974;-49
2023/11/19 08:46:19;;;;;;;;;;;;;;;17.35;40.77;100235.13;5097352;28;1097;-46
2023/11/19 08:48:46;;;;;;;;;;;;;;;16.76;42.15;100222.19;5096743;28;2529;-46
2023/11/19 08:51:12;;;;;;;;;;;;;;;16.33;42.99;100222.06;5095402;28;1307;-47
2023/11/19 08:53:37;;;;;;;;;;;;;;;16.47;42.91;100217.44;5097060;28;1006;-42
2023/11/19 08:56:03;;;;;;;;;;;;;;;17.50;40.55;100198.38;5096123;28;1023;-44
2023/11/19 08:58:28;;;;;;;;;;;;;;;16.79;42.04;100215.78;5096737;28;1150;-49
2023/11/19 09:00:54;;;;;;;;;;;;;;;16.36;42.80;100219.19;5096571;28;1154;-45
2023/11/19 09:03:20;;;;;;;;;;;;;;;17.03;41.61;100178.38;5096906;28;1971;-44
2023/11/19 09:05:46;;;;;;;;;;;;;;;17.57;40.31;100210.19;5096190;28;1074;-45
2023/11/19 09:08:11;;;;;;;;;;;;;;;16.81;41.71;100206.72;5096675;28;1422;-47
2023/11/19 09:10:37;;;;;;;;;;;;;;;16.45;42.69;100187.53;5096856;28;1115;-48
2023/11/19 09:13:03;;;;;;;;;;;;;;;16.24;43.21;100212.19;5096012;28;1086;-47
2023/11/19 09:15:29;;;;;;;;;;;;;;;16.71;42.42;100192.50;5096225;28;1126;-44
2023/11/19 09:17:54;;;;;;;;;;;;;;;17.48;40.42;100189.72;5096702;28;2367;-50
2023/11/19 09:20:20;;;;;;;;;;;;;;;16.76;41.91;100190.31;5096305;28;1003;-47
2023/11/19 09:22:46;;;;;;;;;;;;;;;16.50;42.69;100193.28;5096853;28;1040;-48
2023/11/19 09:25:11;;;;;;;;;;;;;;;17.55;40.30;100172.22;5095885;28;1913;-47
2023/11/19 09:27:37;;;;;;;;;;;;;;;16.87;41.80;100154.88;5095962;28;1034;-47
2023/11/19 09:30:03;;;;;;;;;;;;;;;16.47;42.68;100159.03;5095771;28;1251;-43
2023/11/19 09:32:29;;;;;;;;;;;;;;;17.47;40.68;100180.88;5096130;28;1066;-46
2023/11/19 09:34:54;;;;;;;;;;;;;;;16.93;41.81;100169.47;5096493;28;1066;-46
2023/11/19 09:37:20;;;;;;;;;;;;;;;16.51;42.24;100185.22;5095743;28;1104;-48
2023/11/19 09:39:45;;;;;;;;;;;;;;;16.35;42.74;100184.78;5096062;28;1054;-52
2023/11/19 09:42:11;;;;;;;;;;;;;;;17.44;40.64;100189.13;5096080;28;1023;-47
2023/11/19 09:44:37;;;;;;;;;;;;;;;16.80;41.76;100182.94;5096170;28;1980;-49
2023/11/19 09:47:03;;;;;;;;;;;;;;;16.45;42.61;100201.63;5129090;28;1050;-48
2023/11/19 09:49:28;;;;;;;;;;;;;;;17.04;41.43;100190.66;5094497;28;2532;-51
2023/11/19 09:51:54;;;;;;;;;;;;;;;17.49;40.29;100200.22;5094612;28;1115;-46
2023/11/19 09:54:19;;;;;;;;;;;;;;;16.78;41.75;100193.69;5129002;27;1154;-47
2023/11/19 09:56:45;;;;;;;;;;;;;;;16.43;42.69;100206.25;5095964;28;1069;-48
2023/11/19 09:59:12;;;;;;;;;;;;;;;17.31;40.78;100207.94;5094373;28;1043;-48
2023/11/19 10:01:38;;;;;;;;;;;;;;;16.95;41.29;100231.31;5095926;28;1030;-47
2023/11/19 10:04:03;;;;;;;;;;;;;;;16.57;42.19;100233.47;5095799;28;1986;-45
2023/11/19 10:06:29;;;;;;;;;;;;;;;16.34;42.67;100233.53;5096023;28;1101;-48
2023/11/19 10:08:55;;;;;;;;;;;;;;;17.42;40.48;100243.41;5096013;28;1070;-48
2023/11/19 10:11:21;;;;;;;;;;;;;;;17.10;41.06;100235.34;5128232;28;999;-50
2023/11/19 10:13:48;;;;;;;;;;;;;;;16.59;41.99;100227.06;5095816;28;1212;-47
2023/11/19 10:16:13;;;;;;;;;;;;;;;16.30;42.77;100230.25;5095769;28;986;-42
2023/11/19 10:18:45;;;;;;;;;;;;;;;17.18;41.01;100224.09;5095600;28;1903;-48
2023/11/19 10:21:17;;;;;;;;;;;;;;;16.96;41.29;100235.63;5095740;28;1158;-45
2023/11/19 10:23:52;;;;;;;;;;;;;;;16.47;42.18;100247.50;5114988;28;1964;-50
2023/11/19 10:26:17;;;;;;;;;;;;;;;16.10;42.91;100219.44;5095479;28;1140;-45
2023/11/19 10:28:45;;;;;;;;;;;;;;;17.38;40.56;100242.84;5095852;28;1022;-48
2023/11/19 10:31:14;;;;;;;;;;;;;;;16.91;41.32;100267.06;5095501;28;1102;-45
2023/11/19 10:33:40;;;;;;;;;;;;;;;16.45;42.19;100259.22;5091805;28;1346;-49
2023/11/19 10:36:06;;;;;;;;;;;;;;;16.24;42.94;100276.75;5095252;28;1128;-46
2023/11/19 10:38:32;;;;;;;;;;;;;;;17.06;41.34;100280.88;5095825;28;914;-47
2023/11/19 10:40:57;;;;;;;;;;;;;;;17.35;40.13;100277.66;5095340;28;1093;-48
2023/11/19 10:43:23;;;;;;;;;;;;;;;16.69;41.74;100274.13;5098937;28;1898;-47
2023/11/19 10:45:48;;;;;;;;;;;;;;;16.42;42.24;100262.09;5099128;28;1006;-49
2023/11/19 10:48:14;;;;;;;;;;;;;;;17.06;41.28;100283.53;5099340;28;2672;-49
2023/11/19 10:50:40;;;;;;;;;;;;;;;17.19;40.43;100281.59;5098765;28;1126;-50
2023/11/19 10:53:06;;;;;;;;;;;;;;;16.61;41.73;100270.28;5098709;28;1019;-48
2023/11/19 10:55:32;;;;;;;;;;;;;;;16.45;42.22;100257.38;5099260;28;1014;-48
2023/11/19 10:57:59;;;;;;;;;;;;;;;17.55;39.94;100273.28;5099082;28;1058;-46
2023/11/19 11:00:24;;;;;;;;;;;;;;;17.10;40.92;100271.75;5098977;28;1089;-44
2023/11/19 11:02:50;;;;;;;;;;;;;;;16.97;41.13;100288.66;5097445;28;891;-45
2023/11/19 11:05:16;;;;;;;;;;;;;;;16.76;41.72;100264.69;5098723;28;1980;-48
2023/11/19 11:07:41;;;;;;;;;;;;;;;17.31;40.34;100277.06;5114757;28;1069;-48
2023/11/19 11:10:07;;;;;;;;;;;;;;;16.64;41.63;100278.00;5097544;28;1063;-48
2023/11/19 11:12:34;;;;;;;;;;;;;;;16.38;42.51;100304.00;5099060;28;983;-44
2023/11/19 11:15:00;;;;;;;;;;;;;;;17.25;40.60;100262.47;5131139;27;1057;-48
2023/11/19 11:17:25;;;;;;;;;;;;;;;17.04;40.94;100270.38;5097576;28;1944;-44
2023/11/19 11:19:51;;;;;;;;;;;;;;;16.53;41.98;100281.50;5097705;28;1094;-45
2023/11/19 11:22:16;;;;;;;;;;;;;;;16.27;42.65;100278.28;5098832;28;1089;-43
2023/11/19 11:24:46;;;;;;;;;;;;;;;17.04;41.09;100304.09;5096577;28;1987;-45
2023/11/19 11:27:23;;;;;;;;;;;;;;;17.10;40.63;100307.09;5091453;28;994;-46
2023/11/19 11:29:57;;;;;;;;;;;;;;;16.57;41.68;100326.41;5098393;28;1006;-46
2023/11/19 11:32:35;;;;;;;;;;;;;;;16.24;42.41;100332.47;5098389;28;1027;-47
2023/11/19 11:35:24;;;;;;;;;;;;;;;16.92;41.36;100340.47;5098410;28;1205;-48
2023/11/19 11:37:50;;;;;;;;;;;;;;;17.13;40.60;100364.50;5097115;28;1164;-48
2023/11/19 11:40:18;;;;;;;;;;;;;;;16.56;41.58;100368.06;5098458;28;1081;-46
2023/11/19 11:42:44;;;;;;;;;;;;;;;16.35;42.36;100366.13;5097977;28;992;-46
2023/11/19 11:45:10;;;;;;;;;;;;;;;17.40;40.37;100387.09;5098422;28;1972;-48
2023/11/19 11:47:45;;;;;;;;;;;;;;;17.09;40.52;100401.13;5098323;28;2265;-51
2023/11/19 11:50:13;;;;;;;;;;;;;;;16.50;41.71;100413.66;5097697;28;1094;-45
2023/11/19 11:52:57;;;;;;;;;;;;;;;16.37;42.42;100419.09;5097635;28;1042;-47
2023/11/19 11:55:26;;;;;;;;;;;;;;;17.55;39.99;100432.03;5097160;28;1086;-46
2023/11/19 11:57:51;;;;;;;;;;;;;;;16.86;41.27;100422.38;5098039;28;1173;-48
2023/11/19 12:00:29;;;;;;;;;;;;;;;16.45;42.09;100413.22;5098018;28;1117;-51
2023/11/19 12:02:55;;;;;;;;;;;;;;;16.20;42.72;100428.38;5097197;28;891;-50
2023/11/19 12:05:21;;;;;;;;;;;;;;;17.28;40.83;100436.00;5098179;28;1921;-52
2023/11/19 12:07:57;;;;;;;;;;;;;;;17.00;40.94;100434.53;5098227;28;1078;-48
2023/11/19 12:10:23;;;;;;;;;;;;;;;16.55;41.84;100447.84;5097624;28;1200;-45
2023/11/19 12:12:48;;;;;;;;;;;;;;;16.97;41.16;100455.19;5096225;28;1229;-47
2023/11/19 12:15:14;;;;;;;;;;;;;;;16.94;41.19;100456.31;5096977;28;1156;-46
2023/11/19 12:17:46;;;;;;;;;;;;;;;16.43;42.09;100479.69;5097300;28;2354;-47
2023/11/19 12:20:11;;;;;;;;;;;;;;;16.72;41.90;100465.09;5097684;28;1082;-45
2023/11/19 12:22:37;;;;;;;;;;;;;;;17.49;40.10;100459.97;5097620;28;1034;-53
2023/11/19 12:25:03;;;;;;;;;;;;;;;16.74;41.46;100468.50;5097825;28;1913;-44
2023/11/19 12:27:28;;;;;;;;;;;;;;;16.38;41.98;100479.22;5096770;28;899;-46
2023/11/19 12:29:54;;;;;;;;;;;;;;;16.18;42.56;100491.34;5097520;28;1007;-48
2023/11/19 12:32:19;;;;;;;;;;;;;;;17.29;40.47;100494.34;5097271;28;1073;-47
2023/11/19 12:34:45;;;;;;;;;;;;;;;16.81;41.39;100500.75;5097398;28;1078;-47
2023/11/19 12:37:10;;;;;;;;;;;;;;;16.38;42.10;100497.78;5130351;27;1182;-47
2023/11/19 12:39:36;;;;;;;;;;;;;;;17.19;40.70;100478.28;5096023;28;1062;-49
2023/11/19 12:42:01;;;;;;;;;;;;;;;16.79;41.72;100484.91;5097202;28;1034;-47
2023/11/19 12:44:27;;;;;;;;;;;;;;;16.42;42.10;100487.75;5097019;28;2008;-47
2023/11/19 12:47:02;;;;;;;;;;;;;;;16.88;41.30;100488.69;5097449;28;1042;-48
2023/11/19 12:49:28;;;;;;;;;;;;;;;17.29;40.39;100501.47;5096793;28;2652;-47